Pucha Pucha, Argentina
Current Conditions -  °F | °C
As of 9:00 PM on Sunday 23 Nov 2014 (Local Time) from SCSE Reporting Station
Few Clouds Few Clouds  
Wind Chill: 57°   Ceiling: Unl
Heat Index: 57°   Visibility: 6mi
Dew Point: 50°   Wind: 6mph
Humidity: 77%   Direction: 320°NW
Pressure: 29.97"   Gusts: NA
Location:  28.34°S, 69.22°W
Report Text: SCSE 240000Z 32005KT 9999 FEW015 14/10 Q1015
Loading
Personal Weather Stations






























Interactive Weather Map New forecast layout! Learn more

10-Day Weather Forecast

Advertisements
Track Severe Weather on mobile